createdAt,value
2019-06-10T00:01:06.479Z,100148.13
2019-06-10T00:03:32.789Z,100146.08
2019-06-10T00:06:01.868Z,100144.86
2019-06-10T00:08:30.828Z,100147.70
2019-06-10T00:11:01.769Z,100144.61
2019-06-10T00:13:28.468Z,100140.81
2019-06-10T00:15:56.656Z,100127.84
2019-06-10T00:18:38.779Z,100115.66
2019-06-10T00:20:53.212Z,100118.23
2019-06-10T00:23:21.403Z,100108.41
2019-06-10T00:25:51.400Z,100108.22
2019-06-10T00:28:17.887Z,100098.09
2019-06-10T00:30:45.156Z,100101.84
2019-06-10T00:33:12.873Z,100093.55
2019-06-10T00:35:41.210Z,100089.03
2019-06-10T00:38:09.462Z,100077.56
2019-06-10T00:40:41.602Z,100077.24
2019-06-10T00:43:09.159Z,100080.16
2019-06-10T00:45:37.559Z,100079.42
2019-06-10T00:48:18.589Z,100071.95
2019-06-10T00:50:35.066Z,100067.44
2019-06-10T00:53:03.814Z,100059.84
2019-06-10T00:55:31.534Z,100057.03
2019-06-10T00:58:01.073Z,100057.83
2019-06-10T01:00:27.983Z,100055.38
2019-06-10T01:02:55.252Z,100061.42
2019-06-10T01:05:22.571Z,100063.67
2019-06-10T01:07:50.866Z,100060.41
2019-06-10T01:10:20.935Z,100056.33
2019-06-10T01:12:47.731Z,100052.80
2019-06-10T01:15:15.325Z,100052.59
2019-06-10T01:17:42.852Z,100047.58
2019-06-10T01:20:12.822Z,100048.09
2019-06-10T01:22:41.078Z,100042.16
2019-06-10T01:25:09.969Z,100048.29
2019-06-10T01:27:40.715Z,100041.44
2019-06-10T01:30:16.657Z,100039.72
2019-06-10T01:32:36.711Z,100037.37
2019-06-10T01:35:04.446Z,100032.27
2019-06-10T01:37:31.855Z,100028.91
2019-06-10T01:40:00.819Z,100022.94
2019-06-10T01:42:30.526Z,100021.64
2019-06-10T01:44:57.693Z,100025.52
2019-06-10T01:47:24.951Z,100028.70
2019-06-10T01:49:52.223Z,100012.97
2019-06-10T01:52:21.172Z,100011.11
2019-06-10T01:54:48.709Z,100006.96
2019-06-10T01:57:17.055Z,100004.35
2019-06-10T01:59:45.147Z,100004.28
2019-06-10T02:02:17.738Z,99998.15
2019-06-10T02:04:46.203Z,100002.30
2019-06-10T02:07:15.585Z,100006.17
2019-06-10T02:09:42.697Z,100006.77
2019-06-10T02:12:12.739Z,99996.84
2019-06-10T02:14:41.644Z,99992.41
2019-06-10T02:17:10.277Z,99992.84
2019-06-10T02:19:38.007Z,99992.33
2019-06-10T02:22:05.274Z,99986.70
2019-06-10T02:24:32.555Z,99984.84
2019-06-10T02:27:01.044Z,99981.33
2019-06-10T02:29:30.630Z,99976.04
2019-06-10T02:31:57.708Z,99966.20
2019-06-10T02:34:27.381Z,99971.61
2019-06-10T02:36:54.128Z,99965.41
2019-06-10T02:39:28.092Z,99969.87
2019-06-10T02:41:53.569Z,99960.19
2019-06-10T02:44:32.233Z,99960.43
2019-06-10T02:46:54.393Z,99961.09
2019-06-10T02:49:45.547Z,99963.73
2019-06-10T02:51:49.702Z,99956.81
2019-06-10T02:54:20.315Z,99948.48
2019-06-10T02:56:46.281Z,99946.03
2019-06-10T02:59:13.568Z,99938.59
2019-06-10T03:01:43.872Z,99933.56
2019-06-10T03:04:13.517Z,99929.45
2019-06-10T03:06:40.232Z,99923.73
2019-06-10T03:09:08.348Z,99926.50
2019-06-10T03:11:37.330Z,99920.78
2019-06-10T03:14:04.817Z,99915.66
2019-06-10T03:16:46.089Z,99920.94
2019-06-10T03:19:13.449Z,99921.57
2019-06-10T03:21:42.859Z,99918.84
2019-06-10T03:24:10.299Z,99923.81
2019-06-10T03:26:37.570Z,99928.19
2019-06-10T03:29:04.820Z,99922.98
2019-06-10T03:31:40.993Z,99916.78
2019-06-10T03:34:04.952Z,99911.73
2019-06-10T03:36:32.269Z,99901.89
2019-06-10T03:38:59.666Z,99889.95
2019-06-10T03:41:28.012Z,99895.20
2019-06-10T03:43:55.382Z,99906.03
2019-06-10T03:46:24.248Z,99903.35
2019-06-10T03:48:52.618Z,99901.64
2019-06-10T03:51:21.199Z,99898.59
2019-06-10T03:53:49.197Z,99902.11
2019-06-10T03:56:17.141Z,99899.31
2019-06-10T03:58:44.533Z,99904.38
2019-06-10T04:01:12.465Z,99911.85
2019-06-10T04:03:42.456Z,99906.12
2019-06-10T04:06:09.395Z,99908.73
2019-06-10T04:08:37.680Z,99902.05
2019-06-10T04:11:04.954Z,99900.95
2019-06-10T04:13:33.789Z,99900.98
2019-06-10T04:16:02.390Z,99907.55
2019-06-10T04:18:32.485Z,99903.31
2019-06-10T04:20:59.269Z,99901.46
2019-06-10T04:23:27.269Z,99903.71
2019-06-10T04:25:55.626Z,99896.86
2019-06-10T04:28:24.691Z,99892.83
2019-06-10T04:30:53.559Z,99890.53
2019-06-10T04:33:23.273Z,99897.72
2019-06-10T04:35:52.008Z,99890.22
2019-06-10T04:38:20.948Z,99889.83
2019-06-10T04:40:48.789Z,99890.03
2019-06-10T04:43:18.373Z,99882.03
2019-06-10T04:45:45.812Z,99883.00
2019-06-10T04:48:13.137Z,99882.19
2019-06-10T04:50:45.479Z,99868.28
2019-06-10T04:53:09.543Z,99867.91
2019-06-10T04:55:36.830Z,99854.14
2019-06-10T04:58:04.320Z,99857.06
2019-06-10T05:00:33.735Z,99860.22
2019-06-10T05:03:02.852Z,99861.80
2019-06-10T05:05:32.617Z,99859.48
2019-06-10T05:07:59.643Z,99862.91
2019-06-10T05:10:28.245Z,99862.31
2019-06-10T05:12:55.904Z,99864.70
2019-06-10T05:15:24.898Z,99870.83
2019-06-10T05:17:52.776Z,99864.45
2019-06-10T05:20:20.065Z,99868.28
2019-06-10T05:22:47.338Z,99861.20
2019-06-10T05:25:14.614Z,99856.49
2019-06-10T05:27:42.908Z,99855.02
2019-06-10T05:30:12.283Z,99857.98
2019-06-10T05:32:39.631Z,99856.91
2019-06-10T05:35:07.513Z,99849.41
2019-06-10T05:37:34.805Z,99852.73
2019-06-10T05:40:03.222Z,99843.86
2019-06-10T05:42:33.584Z,99849.31
2019-06-10T05:44:59.612Z,99854.21
2019-06-10T05:47:28.335Z,99851.26
2019-06-10T05:49:56.001Z,99854.19
2019-06-10T05:52:24.901Z,99846.69
2019-06-10T05:54:52.528Z,99836.39
2019-06-10T05:57:20.009Z,99834.54
2019-06-10T05:59:47.334Z,99841.11
2019-06-10T06:02:14.611Z,99842.96
2019-06-10T06:04:42.793Z,99849.87
2019-06-10T06:07:12.744Z,99847.55
2019-06-10T06:09:39.685Z,99842.55
2019-06-10T06:12:07.034Z,99838.16
2019-06-10T06:14:36.084Z,99832.27
2019-06-10T06:17:03.621Z,99832.11
2019-06-10T06:19:33.726Z,99829.19
2019-06-10T06:22:02.186Z,99830.75
2019-06-10T06:24:29.582Z,99833.18
2019-06-10T06:26:56.923Z,99827.08
2019-06-10T06:29:24.208Z,99823.47
2019-06-10T06:31:52.287Z,99822.27
2019-06-10T06:34:22.245Z,99818.97
2019-06-10T06:36:49.136Z,99826.02
2019-06-10T06:39:16.410Z,99820.27
2019-06-10T06:41:43.774Z,99820.15
2019-06-10T06:44:13.042Z,99813.23
2019-06-10T06:46:42.676Z,99809.52
2019-06-10T06:49:09.503Z,99813.39
2019-06-10T06:51:50.747Z,99818.84
2019-06-10T06:54:06.049Z,99812.41
2019-06-10T06:56:36.103Z,99815.14
2019-06-10T06:59:02.689Z,99805.38
2019-06-10T07:01:32.957Z,99796.61
2019-06-10T07:04:02.464Z,99806.73
2019-06-10T07:06:32.448Z,99804.31
2019-06-10T07:09:04.400Z,99806.25
2019-06-10T07:11:33.930Z,99806.84
2019-06-10T07:14:03.810Z,99807.88
2019-06-10T07:16:34.135Z,99814.11
2019-06-10T07:19:02.483Z,99811.08
2019-06-10T07:21:29.669Z,99810.20
2019-06-10T07:23:56.936Z,99810.41
2019-06-10T07:26:24.197Z,99814.30
2019-06-10T07:28:53.752Z,99826.98
2019-06-10T07:31:27.476Z,99817.68
2019-06-10T07:33:52.358Z,99820.84
2019-06-10T07:36:19.319Z,99821.36
2019-06-10T07:38:49.022Z,99816.79
2019-06-10T07:41:16.082Z,99806.33
2019-06-10T07:43:49.312Z,99810.34
2019-06-10T07:46:13.522Z,99809.41
2019-06-10T07:48:42.181Z,99797.63
2019-06-10T07:51:10.116Z,99795.75
2019-06-10T07:53:38.682Z,99796.95
2019-06-10T07:56:07.049Z,99793.94
2019-06-10T07:58:35.500Z,99792.81
2019-06-10T08:01:03.588Z,99790.18
2019-06-10T08:03:33.366Z,99791.34
2019-06-10T08:06:03.040Z,99797.58
2019-06-10T08:08:29.390Z,99790.29
2019-06-10T08:10:56.686Z,99781.72
2019-06-10T08:13:24.008Z,99779.88
2019-06-10T08:15:53.228Z,99775.73
2019-06-10T08:18:22.511Z,99775.47
2019-06-10T08:20:49.764Z,99776.78
2019-06-10T08:23:17.789Z,99777.27
2019-06-10T08:25:53.168Z,99779.78
2019-06-10T08:28:14.869Z,99770.83
2019-06-10T08:30:44.719Z,99767.33
2019-06-10T08:33:13.779Z,99775.34
2019-06-10T08:35:48.551Z,99777.63
2019-06-10T08:38:12.298Z,99772.78
2019-06-10T08:40:40.638Z,99777.59
2019-06-10T08:43:08.866Z,99771.38
2019-06-10T08:45:36.877Z,99776.59
2019-06-10T08:48:04.795Z,99779.09
2019-06-10T08:50:33.667Z,99778.25
2019-06-10T08:53:13.854Z,99767.56
2019-06-10T08:55:33.337Z,99759.23
2019-06-10T08:58:02.557Z,99766.61
2019-06-10T09:00:29.219Z,99773.09
2019-06-10T09:02:56.567Z,99771.03
2019-06-10T09:05:24.167Z,99772.85
2019-06-10T09:07:54.387Z,99751.07
2019-06-10T09:10:22.733Z,99759.70
2019-06-10T09:12:54.157Z,99753.42
2019-06-10T09:15:19.465Z,99752.80
2019-06-10T09:17:49.334Z,99755.99
2019-06-10T09:20:16.135Z,99753.03
2019-06-10T09:22:48.234Z,99743.12
2019-06-10T09:25:12.684Z,99733.41
2019-06-10T09:27:41.518Z,99723.78
2019-06-10T09:30:09.572Z,99714.03
2019-06-10T09:32:36.825Z,99704.70
2019-06-10T09:35:05.347Z,99719.50
2019-06-10T09:37:32.626Z,99713.79
2019-06-10T09:40:00.078Z,99727.00
2019-06-10T09:42:28.524Z,99726.19
2019-06-10T09:44:56.873Z,99717.73
2019-06-10T09:47:24.159Z,99710.96
2019-06-10T09:49:55.517Z,99714.17
2019-06-10T09:52:23.926Z,99718.23
2019-06-10T09:54:56.299Z,99722.77
2019-06-10T09:57:19.366Z,99726.67
2019-06-10T09:59:51.383Z,99723.52
2019-06-10T10:02:15.781Z,99712.67
2019-06-10T10:04:47.747Z,99713.97
2019-06-10T10:07:12.746Z,99702.92
2019-06-10T10:09:44.826Z,99695.78
2019-06-10T10:12:09.506Z,99687.95
2019-06-10T10:14:36.791Z,99692.81
2019-06-10T10:17:04.909Z,99686.50
2019-06-10T10:19:32.256Z,99700.92
2019-06-10T10:21:59.608Z,99687.70
2019-06-10T10:24:26.933Z,99693.41
2019-06-10T10:26:57.896Z,99691.73
2019-06-10T10:29:23.525Z,99684.25
2019-06-10T10:31:52.695Z,99691.48
2019-06-10T10:34:22.755Z,99694.35
2019-06-10T10:36:50.903Z,99690.83
2019-06-10T10:39:21.268Z,99696.03
2019-06-10T10:41:48.681Z,99697.06
2019-06-10T10:44:16.827Z,99700.41
2019-06-10T10:46:45.487Z,99702.59
2019-06-10T10:49:14.228Z,99704.81
2019-06-10T10:51:42.897Z,99693.69
2019-06-10T10:54:22.536Z,99690.17
2019-06-10T10:56:39.515Z,99702.70
2019-06-10T10:59:06.906Z,99702.73
2019-06-10T11:01:35.698Z,99694.13
2019-06-10T11:04:03.933Z,99681.27
2019-06-10T11:06:32.306Z,99680.94
2019-06-10T11:08:59.697Z,99683.67
2019-06-10T11:11:29.193Z,99677.67
2019-06-10T11:13:58.550Z,99676.72
2019-06-10T11:16:25.988Z,99671.00
2019-06-10T11:18:55.992Z,99674.27
2019-06-10T11:21:22.937Z,99679.90
2019-06-10T11:23:50.292Z,99662.14
2019-06-10T11:26:17.583Z,99660.64
2019-06-10T11:28:45.275Z,99652.09
2019-06-10T11:31:13.952Z,99637.23
2019-06-10T11:33:43.452Z,99628.36
2019-06-10T11:36:13.237Z,99632.68
2019-06-10T11:38:39.814Z,99629.26
2019-06-10T11:41:08.156Z,99638.07
2019-06-10T11:43:35.767Z,99645.86
2019-06-10T11:46:07.477Z,99647.53
2019-06-10T11:48:32.984Z,99649.63
2019-06-10T11:51:03.543Z,99648.92
2019-06-10T11:53:29.753Z,99649.66
2019-06-10T11:55:57.991Z,99639.52
2019-06-10T11:58:25.336Z,99636.04
2019-06-10T12:00:55.877Z,99637.26
2019-06-10T12:03:23.164Z,99641.27
2019-06-10T12:05:53.809Z,99636.38
2019-06-10T12:08:20.539Z,99634.48
2019-06-10T12:10:49.209Z,99628.54
2019-06-10T12:13:16.490Z,99619.98
2019-06-10T12:16:30.504Z,99619.80
2019-06-10T12:18:13.233Z,99616.23
2019-06-10T12:20:42.679Z,99617.10
2019-06-10T12:23:09.952Z,99615.98
2019-06-10T12:25:39.743Z,99610.47
2019-06-10T12:28:07.656Z,99611.17
2019-06-10T12:30:35.277Z,99606.91
2019-06-10T12:33:05.380Z,99606.68
2019-06-10T12:35:33.343Z,99608.21
2019-06-10T12:38:04.029Z,99603.16
2019-06-10T12:40:30.038Z,99602.82
2019-06-10T12:42:59.704Z,99594.29
2019-06-10T12:45:26.621Z,99588.31
2019-06-10T12:47:56.695Z,99593.69
2019-06-10T12:50:25.072Z,99594.05
2019-06-10T12:52:53.042Z,99590.02
2019-06-10T12:55:35.573Z,99590.80
2019-06-10T12:57:52.242Z,99587.22
2019-06-10T13:00:26.204Z,99582.92
2019-06-10T13:02:53.133Z,99585.78
2019-06-10T13:05:22.788Z,99581.61
2019-06-10T13:07:50.295Z,99586.53
2019-06-10T13:10:36.545Z,99582.30
2019-06-10T13:13:07.278Z,99579.47
2019-06-10T13:15:34.168Z,99577.03
2019-06-10T13:18:05.751Z,99566.56
2019-06-10T13:20:32.190Z,99567.91
2019-06-10T13:23:13.702Z,99559.25
2019-06-10T13:25:29.192Z,99559.45
2019-06-10T13:27:57.693Z,99551.41
2019-06-10T13:30:25.017Z,99542.13
2019-06-10T13:32:52.758Z,99531.80
2019-06-10T13:35:22.849Z,99518.25
2019-06-10T13:37:49.593Z,99529.41
2019-06-10T13:40:17.304Z,99529.95
2019-06-10T13:42:44.695Z,99518.91
2019-06-10T13:45:12.370Z,99520.48
2019-06-10T13:47:39.762Z,99520.88
2019-06-10T13:50:10.842Z,99511.95
2019-06-10T13:52:37.666Z,99515.05
2019-06-10T13:55:07.438Z,99514.70
2019-06-10T13:57:34.664Z,99520.72
2019-06-10T14:00:05.144Z,99517.42
2019-06-10T14:02:32.351Z,99508.47
2019-06-10T14:05:03.551Z,99505.06
2019-06-10T14:07:32.516Z,99496.65
2019-06-10T14:10:02.948Z,99501.80
2019-06-10T14:12:29.271Z,99498.87
2019-06-10T14:14:56.553Z,99493.81
2019-06-10T14:17:23.863Z,99491.56
2019-06-10T14:19:51.131Z,99497.70
2019-06-10T14:22:18.460Z,99492.46
2019-06-10T14:24:47.828Z,99495.00
2019-06-10T14:27:20.466Z,99498.22
2019-06-10T14:29:45.028Z,99495.21
2019-06-10T14:32:14.349Z,99491.11
2019-06-10T14:34:42.975Z,99497.98
2019-06-10T14:37:12.821Z,99492.30
2019-06-10T14:39:42.268Z,99483.89
2019-06-10T14:42:10.988Z,99490.11
2019-06-10T14:44:38.863Z,99495.78
2019-06-10T14:47:06.610Z,99498.55
2019-06-10T14:49:34.008Z,99504.16
2019-06-10T14:52:02.725Z,99497.10
2019-06-10T14:54:32.232Z,99502.03
2019-06-10T14:56:59.521Z,99499.58
2019-06-10T14:59:26.777Z,99501.17
2019-06-10T15:01:54.068Z,99504.16
2019-06-10T15:04:22.460Z,99499.31
2019-06-10T15:06:49.864Z,99498.76
2019-06-10T15:09:17.149Z,99494.04
2019-06-10T15:11:44.531Z,99492.58
2019-06-10T15:14:13.954Z,99492.03
2019-06-10T15:16:43.542Z,99483.28
2019-06-10T15:19:16.502Z,99480.36
2019-06-10T15:21:39.407Z,99477.39
2019-06-10T15:24:11.947Z,99479.16
2019-06-10T15:26:42.204Z,99483.31
2019-06-10T15:29:09.346Z,99483.91
2019-06-10T15:31:36.619Z,99479.61
2019-06-10T15:34:04.019Z,99468.89
2019-06-10T15:36:32.710Z,99467.66
2019-06-10T15:39:00.117Z,99464.55
2019-06-10T15:41:27.383Z,99476.83
2019-06-10T15:43:54.677Z,99472.91
2019-06-10T15:46:21.977Z,99471.94
2019-06-10T15:48:49.281Z,99470.03
2019-06-10T15:51:20.687Z,99468.98
2019-06-10T15:53:45.825Z,99463.32
2019-06-10T15:56:24.993Z,99466.48
2019-06-10T15:58:43.009Z,99456.47
2019-06-10T16:01:14.495Z,99459.05
2019-06-10T16:03:39.512Z,99461.40
2019-06-10T16:06:06.859Z,99459.97
2019-06-10T16:08:34.172Z,99453.23
2019-06-10T16:11:03.024Z,99459.78
2019-06-10T16:13:32.282Z,99454.59
2019-06-10T16:15:59.846Z,99456.66
2019-06-10T16:18:28.021Z,99469.03
2019-06-10T16:20:55.500Z,99460.02
2019-06-10T16:23:25.069Z,99455.62
2019-06-10T16:25:53.337Z,99458.47
2019-06-10T16:28:24.517Z,99463.05
2019-06-10T16:30:53.309Z,99468.84
2019-06-10T16:33:23.262Z,99474.59
2019-06-10T16:35:50.774Z,99487.60
2019-06-10T16:38:19.093Z,99490.93
2019-06-10T16:40:46.510Z,99490.59
2019-06-10T16:43:13.789Z,99484.32
2019-06-10T16:45:43.310Z,99483.28
2019-06-10T16:48:12.833Z,99474.87
2019-06-10T16:50:42.481Z,99460.52
2019-06-10T16:53:09.012Z,99460.50
2019-06-10T16:55:36.381Z,99455.09
2019-06-10T16:58:04.083Z,99444.00
2019-06-10T17:00:43.028Z,99440.55
2019-06-10T17:03:12.791Z,99444.39
2019-06-10T17:05:42.690Z,99435.52
2019-06-10T17:08:12.686Z,99442.19
2019-06-10T17:10:39.962Z,99441.14
2019-06-10T17:13:09.117Z,99443.81
2019-06-10T17:15:36.395Z,99439.80
2019-06-10T17:18:03.834Z,99440.75
2019-06-10T17:20:33.833Z,99446.53
2019-06-10T17:23:20.901Z,99440.66
2019-06-10T17:25:50.071Z,99440.41
2019-06-10T17:28:18.593Z,99443.97
2019-06-10T17:30:46.625Z,99450.84
2019-06-10T17:33:13.948Z,99456.84
2019-06-10T17:35:43.228Z,99454.65
2019-06-10T17:38:12.199Z,99460.81
2019-06-10T17:40:39.604Z,99458.42
2019-06-10T17:43:06.941Z,99457.57
2019-06-10T17:45:34.223Z,99457.27
2019-06-10T17:48:03.086Z,99466.16
2019-06-10T17:50:32.487Z,99465.03
2019-06-10T17:53:02.452Z,99459.33
2019-06-10T17:55:33.736Z,99458.41
2019-06-10T17:58:02.743Z,99464.86
2019-06-10T18:00:29.450Z,99466.91
2019-06-10T18:02:56.799Z,99460.41
2019-06-10T18:05:25.089Z,99465.52
2019-06-10T18:07:52.819Z,99476.72
2019-06-10T18:10:22.485Z,99469.14
2019-06-10T18:12:52.709Z,99464.25
2019-06-10T18:15:22.171Z,99460.78
2019-06-10T18:17:49.191Z,99466.51
2019-06-10T18:20:17.962Z,99473.16
2019-06-10T18:22:45.898Z,99481.18
2019-06-10T18:25:13.901Z,99479.23
2019-06-10T18:27:41.345Z,99474.99
2019-06-10T18:30:11.431Z,99464.17
2019-06-10T18:32:38.507Z,99468.28
2019-06-10T18:35:06.164Z,99475.84
2019-06-10T18:37:34.886Z,99474.93
2019-06-10T18:40:03.189Z,99476.86
2019-06-10T18:42:32.750Z,99475.61
2019-06-10T18:44:59.708Z,99478.59
2019-06-10T18:47:27.742Z,99482.84
2019-06-10T18:49:56.989Z,99479.95
2019-06-10T18:52:25.027Z,99476.41
2019-06-10T18:54:52.924Z,99474.95
2019-06-10T18:57:22.476Z,99470.36
2019-06-10T18:59:52.087Z,99465.41
2019-06-10T19:02:19.405Z,99461.90
2019-06-10T19:04:46.723Z,99469.59
2019-06-10T19:07:14.030Z,99471.11
2019-06-10T19:09:47.627Z,99474.56
2019-06-10T19:12:10.672Z,99468.55
2019-06-10T19:14:38.345Z,99461.15
2019-06-10T19:17:05.731Z,99464.19
2019-06-10T19:19:33.931Z,99469.41
2019-06-10T19:22:08.187Z,99470.63
2019-06-10T19:24:34.293Z,99477.56
2019-06-10T19:27:02.875Z,99463.27
2019-06-10T19:29:35.091Z,99467.16
2019-06-10T19:31:59.277Z,99465.48
2019-06-10T19:34:26.565Z,99470.66
2019-06-10T19:36:53.969Z,99468.84
2019-06-10T19:39:22.267Z,99484.67
2019-06-10T19:41:49.693Z,99470.02
2019-06-10T19:44:17.023Z,99473.55
2019-06-10T19:46:44.350Z,99475.93
2019-06-10T19:49:13.464Z,99482.39
2019-06-10T19:51:41.668Z,99473.78
2019-06-10T19:54:12.367Z,99474.87
2019-06-10T19:56:39.690Z,99462.41
2019-06-10T19:59:07.034Z,99457.94
2019-06-10T20:01:35.925Z,99456.15
2019-06-10T20:04:03.727Z,99460.91
2019-06-10T20:06:32.210Z,99454.01
2019-06-10T20:08:59.715Z,99454.66
2019-06-10T20:11:26.994Z,99455.50
2019-06-10T20:13:54.307Z,99443.52
2019-06-10T20:16:21.611Z,99443.92
2019-06-10T20:18:49.839Z,99447.48
2019-06-10T20:21:17.286Z,99445.83
2019-06-10T20:23:45.770Z,99449.92
2019-06-10T20:26:13.328Z,99449.92
2019-06-10T20:28:41.340Z,99438.33
2019-06-10T20:31:09.896Z,99432.96
2019-06-10T20:33:38.811Z,99423.12
2019-06-10T20:36:15.164Z,99433.80
2019-06-10T20:38:38.484Z,99440.45
2019-06-10T20:41:08.726Z,99440.92
2019-06-10T20:43:37.631Z,99438.86
2019-06-10T20:46:06.460Z,99445.52
2019-06-10T20:48:36.385Z,99451.21
2019-06-10T20:51:05.259Z,99454.77
2019-06-10T20:53:34.152Z,99456.30
2019-06-10T20:56:03.763Z,99457.83
2019-06-10T20:58:33.380Z,99464.77
2019-06-10T21:01:04.489Z,99476.50
2019-06-10T21:03:35.270Z,99475.86
2019-06-10T21:06:04.100Z,99482.57
2019-06-10T21:08:34.546Z,99487.50
2019-06-10T21:11:03.501Z,99496.69
2019-06-10T21:13:33.058Z,99494.95
2019-06-10T21:16:03.528Z,99501.78
2019-06-10T21:18:33.105Z,99499.63
2019-06-10T21:21:02.083Z,99507.17
2019-06-10T21:23:32.272Z,99507.69
2019-06-10T21:26:02.852Z,99496.77
2019-06-10T21:28:32.716Z,99496.14
2019-06-10T21:31:02.872Z,99494.84
2019-06-10T21:33:33.320Z,99503.88
2019-06-10T21:36:03.532Z,99502.32
2019-06-10T21:38:32.267Z,99505.70
2019-06-10T21:41:03.049Z,99503.27
2019-06-10T21:43:32.885Z,99494.80
2019-06-10T21:46:03.693Z,99491.51
2019-06-10T21:48:32.375Z,99489.03
2019-06-10T21:51:00.616Z,99491.85
2019-06-10T21:53:28.590Z,99485.55
2019-06-10T21:55:57.863Z,99481.59
2019-06-10T21:58:26.088Z,99473.80
2019-06-10T22:01:08.521Z,99463.22
2019-06-10T22:03:24.578Z,99455.06
2019-06-10T22:05:53.807Z,99462.02
2019-06-10T22:08:21.929Z,99460.67
2019-06-10T22:10:50.109Z,99449.75
2019-06-10T22:13:18.200Z,99462.73
2019-06-10T22:15:48.372Z,99468.46
2019-06-10T22:18:16.536Z,99466.20
2019-06-10T22:20:44.917Z,99473.23
2019-06-10T22:23:13.056Z,99474.30
2019-06-10T22:25:42.119Z,99478.85
2019-06-10T22:28:10.290Z,99475.52
2019-06-10T22:30:38.452Z,99472.38
2019-06-10T22:33:06.482Z,99477.69
2019-06-10T22:35:34.885Z,99467.67
2019-06-10T22:38:03.054Z,99478.51
2019-06-10T22:40:32.814Z,99483.19
2019-06-10T22:43:03.090Z,99482.13
2019-06-10T22:45:32.338Z,99483.91
2019-06-10T22:48:02.798Z,99483.95
2019-06-10T22:50:32.281Z,99481.02
2019-06-10T22:53:00.515Z,99479.23
2019-06-10T22:55:28.642Z,99470.53
2019-06-10T22:57:59.741Z,99473.58
2019-06-10T23:00:27.023Z,99461.44
2019-06-10T23:02:56.517Z,99455.57
2019-06-10T23:05:24.511Z,99453.92
2019-06-10T23:07:53.281Z,99454.98
2019-06-10T23:10:22.901Z,99464.76
2019-06-10T23:12:53.356Z,99484.02
2019-06-10T23:15:23.314Z,99491.77
2019-06-10T23:17:53.634Z,99487.64
2019-06-10T23:20:21.155Z,99489.31
2019-06-10T23:22:49.370Z,99493.59
2019-06-10T23:25:17.441Z,99501.70
2019-06-10T23:27:46.195Z,99507.72
2019-06-10T23:30:15.145Z,99508.57
2019-06-10T23:32:43.472Z,99505.61
2019-06-10T23:35:12.308Z,99510.22
2019-06-10T23:37:42.673Z,99511.63
2019-06-10T23:40:12.680Z,99510.43
2019-06-10T23:42:41.394Z,99505.48
2019-06-10T23:45:10.113Z,99503.81
2019-06-10T23:47:38.776Z,99503.31
2019-06-10T23:50:08.479Z,99507.13
2019-06-10T23:52:37.771Z,99507.02
2019-06-10T23:55:05.909Z,99501.81
2019-06-10T23:57:33.963Z,99506.47
